createdAt,value
2022-08-20T00:00:17.448Z,94.30
2022-08-20T00:02:51.923Z,94.30
2022-08-20T00:05:25.929Z,94.30
2022-08-20T00:07:52.814Z,94.30
2022-08-20T00:10:21.168Z,94.30
2022-08-20T00:12:49.377Z,94.40
2022-08-20T00:15:21.717Z,94.30
2022-08-20T00:17:52.155Z,94.40
2022-08-20T00:20:22.674Z,94.40
2022-08-20T00:22:49.563Z,94.30
2022-08-20T00:25:41.797Z,94.30
2022-08-20T00:28:09.342Z,94.30
2022-08-20T00:30:36.586Z,94.30
2022-08-20T00:33:07.403Z,94.30
2022-08-20T00:35:37.116Z,94.30
2022-08-20T00:38:04.987Z,94.40
2022-08-20T00:40:41.008Z,94.40
2022-08-20T00:43:29.984Z,94.30
2022-08-20T00:46:00.013Z,94.30
2022-08-20T00:48:32.067Z,94.30
2022-08-20T00:51:29.865Z,94.30
2022-08-20T00:54:03.017Z,94.30
2022-08-20T00:56:33.793Z,94.40
2022-08-20T00:59:01.728Z,94.50
2022-08-20T01:01:29.068Z,93.40
2022-08-20T01:03:56.660Z,94.40
2022-08-20T01:06:25.165Z,94.40
2022-08-20T01:08:53.633Z,94.60
2022-08-20T01:11:23.599Z,94.50
2022-08-20T01:13:51.174Z,94.60
2022-08-20T01:16:25.157Z,94.50
2022-08-20T01:18:57.578Z,94.50
2022-08-20T01:21:32.157Z,94.60
2022-08-20T01:24:15.114Z,94.50
2022-08-20T01:26:44.840Z,94.50
2022-08-20T01:29:26.431Z,94.60
2022-08-20T01:31:53.242Z,94.30
2022-08-20T01:34:20.881Z,94.40
2022-08-20T01:36:51.143Z,94.50
2022-08-20T01:39:25.060Z,94.70
2022-08-20T01:42:02.753Z,94.80
2022-08-20T01:44:30.645Z,95.30
2022-08-20T01:47:07.731Z,95.10
2022-08-20T01:49:35.539Z,94.90
2022-08-20T01:52:07.531Z,94.70
2022-08-20T01:54:35.384Z,94.80
2022-08-20T01:57:13.764Z,94.70
2022-08-20T01:59:41.011Z,94.60
2022-08-20T02:02:11.644Z,94.60
2022-08-20T02:04:38.886Z,94.70
2022-08-20T02:07:07.208Z,94.70
2022-08-20T02:09:39.960Z,94.80
2022-08-20T02:12:08.824Z,94.80
2022-08-20T02:14:40.168Z,94.70
2022-08-20T02:17:07.076Z,94.70
2022-08-20T02:19:39.073Z,94.70
2022-08-20T02:22:29.402Z,94.70
2022-08-20T02:24:56.589Z,94.70
2022-08-20T02:27:23.690Z,94.70
2022-08-20T02:29:51.985Z,94.70
2022-08-20T02:32:32.668Z,94.70
2022-08-20T02:35:03.863Z,94.60
2022-08-20T02:37:31.936Z,94.90
2022-08-20T02:39:59.357Z,94.70
2022-08-20T02:42:26.600Z,94.70
2022-08-20T02:44:54.479Z,94.70
2022-08-20T02:47:21.204Z,94.60
2022-08-20T02:49:47.934Z,94.70
2022-08-20T02:52:14.688Z,94.70
2022-08-20T02:54:41.424Z,94.70
2022-08-20T02:57:20.224Z,94.70
2022-08-20T02:59:52.010Z,94.70
2022-08-20T03:02:19.165Z,94.70
2022-08-20T03:04:45.869Z,94.70
2022-08-20T03:07:13.024Z,94.70
2022-08-20T03:09:40.349Z,94.70
2022-08-20T03:12:08.179Z,94.90
2022-08-20T03:14:35.970Z,94.80
2022-08-20T03:17:04.698Z,94.80
2022-08-20T03:19:31.520Z,95.10
2022-08-20T03:21:58.312Z,94.90
2022-08-20T03:24:25.013Z,94.90
2022-08-20T03:26:52.850Z,94.70
2022-08-20T03:29:19.652Z,94.60
2022-08-20T03:31:46.486Z,94.60
2022-08-20T03:34:13.268Z,94.70
2022-08-20T03:36:40.112Z,94.70
2022-08-20T03:39:11.712Z,94.60
2022-08-20T03:41:39.226Z,94.60
2022-08-20T03:44:06.898Z,94.60
2022-08-20T03:46:34.235Z,94.60
2022-08-20T03:49:03.393Z,94.60
2022-08-20T03:51:31.406Z,94.60
2022-08-20T03:53:58.788Z,94.70
2022-08-20T03:56:26.101Z,94.60
2022-08-20T03:58:53.050Z,94.60
2022-08-20T04:01:44.981Z,94.60
2022-08-20T04:04:06.634Z,94.60
2022-08-20T04:06:39.669Z,94.60
2022-08-20T04:09:07.366Z,94.60
2022-08-20T04:11:37.585Z,94.60
2022-08-20T04:14:04.819Z,94.60
2022-08-20T04:16:33.567Z,94.60
2022-08-20T04:19:02.315Z,94.60
2022-08-20T04:21:33.911Z,94.50
2022-08-20T04:24:02.781Z,94.50
2022-08-20T04:26:30.587Z,94.50
2022-08-20T04:28:57.947Z,94.50
2022-08-20T04:31:25.334Z,94.50
2022-08-20T04:33:52.762Z,94.50
2022-08-20T04:36:19.531Z,94.60
2022-08-20T04:38:48.510Z,94.50
2022-08-20T04:41:22.676Z,94.50
2022-08-20T04:43:50.724Z,94.50
2022-08-20T04:46:17.538Z,94.50
2022-08-20T04:48:49.062Z,94.40
2022-08-20T04:51:18.122Z,94.70
2022-08-20T04:53:52.036Z,94.50
2022-08-20T04:56:25.892Z,94.40
2022-08-20T04:58:54.870Z,94.40
2022-08-20T05:01:23.747Z,94.50
2022-08-20T05:03:53.591Z,94.50
2022-08-20T05:06:21.027Z,94.50
2022-08-20T05:08:47.856Z,94.50
2022-08-20T05:11:33.886Z,94.50
2022-08-20T05:14:02.165Z,94.50
2022-08-20T05:16:28.988Z,94.40
2022-08-20T05:18:55.706Z,94.50
2022-08-20T05:21:22.406Z,94.40
2022-08-20T05:23:49.297Z,94.40
2022-08-20T05:26:17.120Z,94.40
2022-08-20T05:28:58.605Z,94.40
2022-08-20T05:31:32.317Z,94.40
2022-08-20T05:34:10.299Z,94.30
2022-08-20T05:36:40.736Z,94.30
2022-08-20T05:39:11.141Z,94.30
2022-08-20T05:41:39.096Z,94.40
2022-08-20T05:44:13.414Z,94.30
2022-08-20T05:46:47.520Z,94.20
2022-08-20T05:49:17.404Z,94.10
2022-08-20T05:51:44.404Z,94.10
2022-08-20T05:54:12.603Z,93.90
2022-08-20T05:56:39.641Z,93.80
2022-08-20T05:59:09.018Z,93.70
2022-08-20T06:01:39.154Z,93.90
2022-08-20T06:04:24.831Z,93.70
2022-08-20T06:06:53.645Z,93.70
2022-08-20T06:09:31.396Z,93.60
2022-08-20T06:12:04.151Z,93.20
2022-08-20T06:14:31.754Z,93.00
2022-08-20T06:17:15.923Z,93.00
2022-08-20T06:19:44.429Z,92.90
2022-08-20T06:22:20.516Z,92.70
2022-08-20T06:24:52.046Z,92.60
2022-08-20T06:27:18.925Z,92.50
2022-08-20T06:29:45.811Z,92.30
2022-08-20T06:32:13.439Z,92.00
2022-08-20T06:34:49.022Z,92.10
2022-08-20T06:37:30.917Z,91.80
2022-08-20T06:40:14.268Z,91.50
2022-08-20T06:42:47.895Z,91.20
2022-08-20T06:45:20.009Z,91.00
2022-08-20T06:47:47.433Z,91.00
2022-08-20T06:50:17.893Z,90.80
2022-08-20T06:52:53.077Z,90.80
2022-08-20T06:55:20.581Z,90.70
2022-08-20T06:57:48.358Z,90.50
2022-08-20T07:00:18.546Z,90.50
2022-08-20T07:02:47.049Z,90.30
2022-08-20T07:05:14.465Z,90.00
2022-08-20T07:07:46.069Z,90.10
2022-08-20T07:10:14.527Z,89.80
2022-08-20T07:12:41.405Z,90.30
2022-08-20T07:15:10.329Z,90.00
2022-08-20T07:17:37.866Z,87.50
2022-08-20T07:20:13.288Z,88.20
2022-08-20T07:22:40.971Z,88.60
2022-08-20T07:25:11.205Z,81.60
2022-08-20T07:27:38.179Z,87.50
2022-08-20T07:30:25.485Z,87.70
2022-08-20T07:32:52.325Z,84.90
2022-08-20T07:35:21.161Z,86.90
2022-08-20T07:37:51.770Z,88.30
2022-08-20T07:40:28.436Z,87.70
2022-08-20T07:43:00.832Z,86.10
2022-08-20T07:45:28.499Z,86.90
2022-08-20T07:47:55.998Z,83.90
2022-08-20T07:50:25.322Z,84.90
2022-08-20T07:52:53.179Z,83.90
2022-08-20T07:55:21.212Z,85.80
2022-08-20T07:57:50.115Z,86.20
2022-08-20T08:00:19.047Z,87.30
2022-08-20T08:02:49.037Z,87.30
2022-08-20T08:05:18.325Z,84.80
2022-08-20T08:07:46.371Z,86.60
2022-08-20T08:10:18.676Z,87.10
2022-08-20T08:12:50.605Z,88.20
2022-08-20T08:15:22.464Z,84.60
2022-08-20T08:17:52.654Z,86.50
2022-08-20T08:20:20.413Z,83.00
2022-08-20T08:22:47.559Z,88.50
2022-08-20T08:25:17.028Z,87.80
2022-08-20T08:27:49.002Z,88.20
2022-08-20T08:30:16.716Z,88.90
2022-08-20T08:33:03.400Z,81.10
2022-08-20T08:35:32.570Z,85.60
2022-08-20T08:38:02.397Z,87.50
2022-08-20T08:40:31.917Z,85.60
2022-08-20T08:43:02.982Z,88.10
2022-08-20T08:45:38.306Z,77.90
2022-08-20T08:48:05.362Z,85.90
2022-08-20T08:50:53.157Z,88.90
2022-08-20T08:53:27.862Z,87.10
2022-08-20T08:55:54.686Z,89.10
2022-08-20T08:58:21.466Z,88.30
2022-08-20T09:00:57.349Z,87.00
2022-08-20T09:03:31.740Z,87.00
2022-08-20T09:06:00.827Z,87.50
2022-08-20T09:08:33.095Z,87.30
2022-08-20T09:11:08.193Z,87.80
2022-08-20T09:13:35.277Z,80.90
2022-08-20T09:16:03.392Z,76.40
2022-08-20T09:18:30.206Z,86.20
2022-08-20T09:20:59.008Z,85.70
2022-08-20T09:23:36.575Z,87.10
2022-08-20T09:26:03.347Z,77.30
2022-08-20T09:28:34.865Z,84.30
2022-08-20T09:31:04.780Z,67.70
2022-08-20T09:33:34.464Z,82.60
2022-08-20T09:36:01.211Z,85.90
2022-08-20T09:38:28.167Z,85.00
2022-08-20T09:40:55.038Z,74.10
2022-08-20T09:43:22.848Z,86.20
2022-08-20T09:45:49.564Z,85.10
2022-08-20T09:48:18.470Z,86.50
2022-08-20T09:50:48.318Z,85.30
2022-08-20T09:53:16.045Z,71.10
2022-08-20T09:55:46.833Z,75.50
2022-08-20T09:58:40.292Z,85.20
2022-08-20T10:01:15.104Z,66.30
2022-08-20T10:03:43.031Z,69.60
2022-08-20T10:06:11.322Z,82.40
2022-08-20T10:08:38.705Z,81.80
2022-08-20T10:11:05.789Z,84.70
2022-08-20T10:13:33.041Z,84.20
2022-08-20T10:15:59.887Z,83.40
2022-08-20T10:18:26.765Z,78.60
2022-08-20T10:20:53.555Z,71.10
2022-08-20T10:23:20.263Z,79.60
2022-08-20T10:25:47.202Z,79.70
2022-08-20T10:28:13.988Z,83.20
2022-08-20T10:30:41.041Z,74.40
2022-08-20T10:33:07.830Z,81.10
2022-08-20T10:35:34.545Z,80.20
2022-08-20T10:38:01.241Z,83.30
2022-08-20T10:40:28.338Z,84.40
2022-08-20T10:42:55.212Z,84.20
2022-08-20T10:45:21.963Z,74.20
2022-08-20T10:47:48.803Z,82.00
2022-08-20T10:50:16.687Z,79.00
2022-08-20T10:52:44.712Z,81.20
2022-08-20T10:55:13.002Z,67.10
2022-08-20T10:57:41.402Z,80.10
2022-08-20T11:00:10.360Z,73.80
2022-08-20T11:02:37.216Z,77.80
2022-08-20T11:05:06.577Z,72.40
2022-08-20T11:07:55.019Z,79.20
2022-08-20T11:10:25.501Z,81.50
2022-08-20T11:12:56.986Z,75.80
2022-08-20T11:15:23.903Z,74.70
2022-08-20T11:17:50.998Z,81.00
2022-08-20T11:20:20.182Z,80.00
2022-08-20T11:22:47.670Z,79.40
2022-08-20T11:25:15.144Z,73.80
2022-08-20T11:27:45.119Z,81.10
2022-08-20T11:30:15.282Z,81.90
2022-08-20T11:32:42.224Z,82.00
2022-08-20T11:38:03.666Z,66.80
2022-08-20T11:40:31.628Z,67.20
2022-08-20T11:43:15.578Z,75.00
2022-08-20T11:45:46.305Z,78.90
2022-08-20T11:48:13.512Z,72.00
2022-08-20T11:50:40.425Z,78.20
2022-08-20T11:53:07.909Z,72.30
2022-08-20T11:55:35.780Z,76.40
2022-08-20T11:58:02.826Z,79.00
2022-08-20T12:00:32.961Z,80.40
2022-08-20T12:03:02.023Z,69.70
2022-08-20T12:05:34.865Z,69.40
2022-08-20T12:08:02.246Z,75.60
2022-08-20T12:10:30.344Z,66.60
2022-08-20T12:12:57.491Z,75.00
2022-08-20T12:15:26.682Z,71.00
2022-08-20T12:17:55.101Z,72.20
2022-08-20T12:20:22.792Z,78.50
2022-08-20T12:22:49.563Z,66.00
2022-08-20T12:25:16.438Z,72.70
2022-08-20T12:27:43.193Z,69.00
2022-08-20T12:30:13.264Z,77.90
2022-08-20T12:32:40.313Z,69.90
2022-08-20T12:35:09.159Z,79.90
2022-08-20T12:37:36.391Z,67.70
2022-08-20T12:40:06.721Z,75.40
2022-08-20T12:42:33.625Z,68.70
2022-08-20T12:45:01.578Z,68.80
2022-08-20T12:47:34.069Z,75.00
2022-08-20T12:50:13.091Z,77.90
2022-08-20T12:52:40.670Z,75.50
2022-08-20T12:55:12.284Z,72.60
2022-08-20T12:57:56.484Z,76.80
2022-08-20T13:00:30.823Z,79.90
2022-08-20T13:03:01.125Z,75.40
2022-08-20T13:05:28.248Z,75.20
2022-08-20T13:07:55.483Z,79.00
2022-08-20T13:10:26.030Z,78.50
2022-08-20T13:12:53.095Z,76.20
2022-08-20T13:15:21.030Z,78.10
2022-08-20T13:17:56.309Z,79.00
2022-08-20T13:20:25.707Z,80.00
2022-08-20T13:22:58.373Z,70.00
2022-08-20T13:25:26.018Z,73.90
2022-08-20T13:28:00.386Z,79.00
2022-08-20T13:30:27.471Z,78.40
2022-08-20T13:32:54.476Z,72.90
2022-08-20T13:35:21.728Z,74.50
2022-08-20T13:37:49.687Z,77.30
2022-08-20T13:40:17.284Z,79.10
2022-08-20T13:42:44.062Z,78.70
2022-08-20T13:45:13.101Z,70.50
2022-08-20T13:47:41.670Z,75.60
2022-08-20T13:50:15.317Z,77.80
2022-08-20T13:52:45.995Z,78.40
2022-08-20T13:55:16.131Z,79.30
2022-08-20T13:57:45.554Z,73.70
2022-08-20T14:00:31.214Z,79.20
2022-08-20T14:03:00.403Z,79.80
2022-08-20T14:05:27.537Z,79.70
2022-08-20T14:07:54.668Z,79.40
2022-08-20T14:10:26.347Z,71.30
2022-08-20T14:12:53.199Z,75.80
2022-08-20T14:15:20.218Z,79.00
2022-08-20T14:17:53.655Z,76.20
2022-08-20T14:20:24.364Z,74.40
2022-08-20T14:22:52.110Z,72.70
2022-08-20T14:25:20.618Z,76.20
2022-08-20T14:27:47.460Z,79.30
2022-08-20T14:30:18.543Z,80.40
2022-08-20T14:32:45.679Z,79.30
2022-08-20T14:35:14.162Z,73.10
2022-08-20T14:37:43.804Z,79.30
2022-08-20T14:40:14.073Z,79.50
2022-08-20T14:42:43.329Z,77.80
2022-08-20T14:45:14.596Z,75.70
2022-08-20T14:47:45.605Z,76.80
2022-08-20T14:50:20.047Z,79.80
2022-08-20T14:52:47.025Z,76.30
2022-08-20T14:55:16.988Z,75.20
2022-08-20T14:57:44.672Z,79.70
2022-08-20T15:00:20.561Z,77.00
2022-08-20T15:02:47.681Z,79.50
2022-08-20T15:05:15.297Z,79.60
2022-08-20T15:07:45.964Z,79.30
2022-08-20T15:10:20.281Z,80.10
2022-08-20T15:12:47.187Z,75.50
2022-08-20T15:15:16.167Z,80.20
2022-08-20T15:17:46.434Z,78.60
2022-08-20T15:20:20.698Z,74.00
2022-08-20T15:22:48.616Z,77.20
2022-08-20T15:25:18.980Z,81.00
2022-08-20T15:27:46.178Z,80.00
2022-08-20T15:30:19.053Z,80.60
2022-08-20T15:32:46.160Z,78.90
2022-08-20T15:35:13.382Z,80.60
2022-08-20T15:37:43.906Z,75.40
2022-08-20T15:40:13.369Z,78.60
2022-08-20T15:42:43.416Z,75.40
2022-08-20T15:45:14.275Z,76.50
2022-08-20T15:47:59.937Z,80.30
2022-08-20T15:50:50.083Z,77.60
2022-08-20T15:53:22.846Z,79.80
2022-08-20T15:56:03.368Z,80.80
2022-08-20T15:58:52.656Z,80.60
2022-08-20T16:01:36.671Z,80.80
2022-08-20T16:04:28.341Z,80.70
2022-08-20T16:07:01.414Z,80.50
2022-08-20T16:10:15.659Z,77.70
2022-08-20T16:12:47.060Z,77.10
2022-08-20T16:15:22.186Z,78.50
2022-08-20T16:18:13.078Z,76.10
2022-08-20T16:20:47.975Z,77.90
2022-08-20T16:23:21.816Z,80.80
2022-08-20T16:26:10.015Z,75.90
2022-08-20T16:28:49.085Z,77.40
2022-08-20T16:31:22.172Z,79.60
2022-08-20T16:34:28.170Z,78.50
2022-08-20T16:37:11.643Z,79.70
2022-08-20T16:39:51.371Z,78.00
2022-08-20T16:42:20.975Z,79.80
2022-08-20T16:44:50.765Z,80.60
2022-08-20T16:47:30.609Z,78.60
2022-08-20T16:50:03.261Z,79.90
2022-08-20T16:52:30.480Z,80.90
2022-08-20T16:54:57.665Z,79.80
2022-08-20T16:57:27.641Z,75.30
2022-08-20T17:00:14.929Z,80.80
2022-08-20T17:03:03.993Z,80.80
2022-08-20T17:05:42.889Z,80.30
2022-08-20T17:08:17.695Z,76.00
2022-08-20T17:11:08.953Z,80.70
2022-08-20T17:13:38.785Z,78.50
2022-08-20T17:16:19.554Z,80.00
2022-08-20T17:18:49.238Z,80.40
2022-08-20T17:21:26.233Z,79.10
2022-08-20T17:24:02.147Z,75.40
2022-08-20T17:26:40.685Z,80.90
2022-08-20T17:29:23.905Z,77.80
2022-08-20T17:31:53.525Z,76.70
2022-08-20T17:34:27.770Z,77.00
2022-08-20T17:37:09.561Z,80.70
2022-08-20T17:39:46.181Z,80.70
2022-08-20T17:42:21.475Z,79.60
2022-08-20T17:44:58.348Z,81.40
2022-08-20T17:47:34.385Z,80.90
2022-08-20T17:50:31.642Z,81.10
2022-08-20T17:53:23.337Z,80.70
2022-08-20T17:55:54.522Z,80.40
2022-08-20T17:58:29.337Z,80.20
2022-08-20T18:00:56.077Z,80.90
2022-08-20T18:03:26.365Z,81.10
2022-08-20T18:06:07.105Z,80.90
2022-08-20T18:08:53.392Z,80.50
2022-08-20T18:11:54.502Z,80.70
2022-08-20T18:14:45.608Z,81.00
2022-08-20T18:17:45.076Z,81.50
2022-08-20T18:20:32.106Z,81.50
2022-08-20T18:23:06.804Z,80.90
2022-08-20T18:25:41.419Z,81.20
2022-08-20T18:28:38.576Z,81.30
2022-08-20T18:31:09.023Z,81.00
2022-08-20T18:33:42.910Z,82.10
2022-08-20T18:36:22.801Z,81.90
2022-08-20T18:39:00.539Z,82.30
2022-08-20T18:41:41.716Z,82.40
2022-08-20T18:44:13.368Z,82.40
2022-08-20T18:46:54.603Z,82.50
2022-08-20T18:49:36.688Z,82.50
2022-08-20T18:52:23.750Z,82.60
2022-08-20T18:54:54.074Z,82.50
2022-08-20T18:57:30.523Z,82.60
2022-08-20T19:00:18.569Z,82.60
2022-08-20T19:03:12.910Z,82.60
2022-08-20T19:05:45.719Z,82.10
2022-08-20T19:08:20.651Z,82.50
2022-08-20T19:11:03.307Z,82.90
2022-08-20T19:13:52.056Z,83.00
2022-08-20T19:16:33.588Z,83.00
2022-08-20T19:19:00.771Z,83.00
2022-08-20T19:21:37.534Z,83.10
2022-08-20T19:24:07.513Z,82.90
2022-08-20T19:26:41.885Z,83.20
2022-08-20T19:29:17.242Z,83.20
2022-08-20T19:31:44.613Z,83.20
2022-08-20T19:34:22.245Z,83.40
2022-08-20T19:37:35.023Z,83.40
2022-08-20T19:40:29.870Z,83.40
2022-08-20T19:42:59.548Z,83.80
2022-08-20T19:45:30.722Z,83.90
2022-08-20T19:48:27.277Z,84.10
2022-08-20T19:50:59.980Z,84.20
2022-08-20T19:53:32.550Z,84.20
2022-08-20T19:56:19.194Z,84.20
2022-08-20T19:58:58.879Z,84.40
2022-08-20T20:01:25.686Z,84.50
2022-08-20T20:04:07.667Z,84.50
2022-08-20T20:06:41.551Z,84.70
2022-08-20T20:09:17.645Z,84.50
2022-08-20T20:11:56.933Z,84.60
2022-08-20T20:14:37.164Z,85.30
2022-08-20T20:17:09.343Z,84.80
2022-08-20T20:19:45.623Z,84.80
2022-08-20T20:22:23.878Z,84.80
2022-08-20T20:25:07.713Z,82.90
2022-08-20T20:27:36.471Z,85.70
2022-08-20T20:30:11.204Z,85.90
2022-08-20T20:32:48.700Z,85.90
2022-08-20T20:35:33.960Z,85.20
2022-08-20T20:38:11.375Z,85.10
2022-08-20T20:40:53.475Z,85.20
2022-08-20T20:43:38.501Z,85.10
2022-08-20T20:46:17.941Z,85.20
2022-08-20T20:48:48.774Z,85.20
2022-08-20T20:51:32.623Z,85.20
2022-08-20T20:54:06.707Z,85.30
2022-08-20T20:56:35.183Z,85.20
2022-08-20T20:59:06.624Z,85.20
2022-08-20T21:01:48.766Z,85.20
2022-08-20T21:04:21.625Z,85.10
2022-08-20T21:06:49.172Z,85.20
2022-08-20T21:09:16.745Z,85.10
2022-08-20T21:11:43.547Z,85.00
2022-08-20T21:14:10.405Z,84.90
2022-08-20T21:16:37.218Z,84.90
2022-08-20T21:19:07.580Z,84.70
2022-08-20T21:21:36.104Z,84.70
2022-08-20T21:24:03.357Z,84.40
2022-08-20T21:26:30.493Z,84.60
2022-08-20T21:28:57.593Z,84.70
2022-08-20T21:31:33.896Z,84.70
2022-08-20T21:34:01.187Z,84.70
2022-08-20T21:36:28.250Z,84.60
2022-08-20T21:38:54.988Z,84.50
2022-08-20T21:41:29.603Z,84.40
2022-08-20T21:43:58.593Z,84.40
2022-08-20T21:46:25.957Z,84.40
2022-08-20T21:48:52.636Z,84.40
2022-08-20T21:51:19.374Z,84.40
2022-08-20T21:53:46.113Z,84.50
2022-08-20T21:56:12.961Z,84.50
2022-08-20T21:58:40.183Z,84.50
2022-08-20T22:01:07.766Z,84.50
2022-08-20T22:03:38.812Z,84.20
2022-08-20T22:06:10.917Z,84.40
2022-08-20T22:08:37.915Z,84.40
2022-08-20T22:11:07.458Z,84.30
2022-08-20T22:13:34.311Z,84.20
2022-08-20T22:16:04.363Z,84.30
2022-08-20T22:18:31.334Z,84.20
2022-08-20T22:20:58.750Z,84.30
2022-08-20T22:23:26.923Z,84.20
2022-08-20T22:25:53.969Z,84.20
2022-08-20T22:28:20.855Z,84.10
2022-08-20T22:30:47.639Z,84.70
2022-08-20T22:33:20.786Z,84.10
2022-08-20T22:35:51.103Z,84.00
2022-08-20T22:38:18.176Z,84.00
2022-08-20T22:40:45.523Z,84.00
2022-08-20T22:43:13.593Z,84.00
2022-08-20T22:45:43.316Z,84.00
2022-08-20T22:48:13.692Z,84.00
2022-08-20T22:50:40.447Z,84.00
2022-08-20T22:53:08.502Z,83.80
2022-08-20T22:55:36.985Z,83.90
2022-08-20T22:58:05.189Z,83.80
2022-08-20T23:00:33.207Z,83.70
2022-08-20T23:03:01.247Z,83.80
2022-08-20T23:05:31.520Z,83.70
2022-08-20T23:08:00.025Z,83.60
2022-08-20T23:10:29.590Z,83.90
2022-08-20T23:12:57.435Z,83.60
2022-08-20T23:15:26.045Z,83.70
2022-08-20T23:18:01.002Z,83.70
2022-08-20T23:20:27.785Z,83.50
2022-08-20T23:22:54.828Z,83.50
2022-08-20T23:25:21.740Z,83.50
2022-08-20T23:27:52.511Z,83.30
2022-08-20T23:30:20.281Z,83.60
2022-08-20T23:32:47.115Z,84.20
2022-08-20T23:35:14.206Z,83.50
2022-08-20T23:37:47.238Z,83.50
2022-08-20T23:40:16.316Z,83.50
2022-08-20T23:42:43.112Z,83.50
2022-08-20T23:45:10.337Z,83.30
2022-08-20T23:47:37.393Z,83.50
2022-08-20T23:50:09.014Z,83.40
2022-08-20T23:52:35.877Z,83.40
2022-08-20T23:55:03.103Z,83.50
2022-08-20T23:57:30.058Z,83.40
2022-08-20T23:59:57.024Z,83.30
